createdAt,value
2018-08-19T00:01:48.505Z,20.40
2018-08-19T00:04:15.895Z,20.40
2018-08-19T00:06:43.388Z,20.30
2018-08-19T00:09:11.741Z,20.30
2018-08-19T00:11:39.566Z,20.30
2018-08-19T00:14:12.876Z,20.20
2018-08-19T00:16:40.619Z,20.20
2018-08-19T00:19:07.949Z,20.10
2018-08-19T00:21:35.412Z,20.20
2018-08-19T00:24:02.791Z,20.10
2018-08-19T00:26:30.159Z,20.10
2018-08-19T00:28:57.486Z,20.10
2018-08-19T00:31:24.791Z,20.00
2018-08-19T00:33:52.418Z,20.00
2018-08-19T00:36:27.773Z,20.00
2018-08-19T00:38:56.007Z,20.00
2018-08-19T00:41:23.581Z,20.00
2018-08-19T00:43:50.916Z,20.00
2018-08-19T00:46:21.348Z,19.90
2018-08-19T00:48:48.663Z,19.90
2018-08-19T00:51:15.972Z,19.90
2018-08-19T00:53:43.303Z,19.90
2018-08-19T00:56:10.664Z,19.80
2018-08-19T00:58:38.358Z,19.80
2018-08-19T01:01:08.907Z,19.80
2018-08-19T01:03:49.765Z,19.70
2018-08-19T01:06:17.099Z,19.70
2018-08-19T01:08:44.440Z,19.70
2018-08-19T01:11:24.116Z,19.60
2018-08-19T01:13:51.423Z,19.60
2018-08-19T01:16:18.752Z,19.60
2018-08-19T01:18:46.133Z,19.50
2018-08-19T01:21:13.540Z,19.40
2018-08-19T01:23:47.739Z,19.40
2018-08-19T01:26:15.065Z,19.40
2018-08-19T01:28:43.454Z,19.30
2018-08-19T01:31:11.421Z,19.30
2018-08-19T01:33:38.981Z,19.20
2018-08-19T01:36:06.607Z,19.20
2018-08-19T01:38:33.954Z,19.10
2018-08-19T01:41:01.547Z,19.10
2018-08-19T01:43:28.909Z,19.10
2018-08-19T01:45:57.919Z,19.00
2018-08-19T01:48:25.270Z,19.00
2018-08-19T01:50:52.573Z,19.00
2018-08-19T01:53:19.887Z,19.00
2018-08-19T01:55:47.192Z,18.90
2018-08-19T01:58:14.867Z,19.00
2018-08-19T02:00:42.187Z,18.90
2018-08-19T02:03:09.615Z,18.90
2018-08-19T02:05:37.006Z,18.90
2018-08-19T02:08:04.724Z,18.90
2018-08-19T02:10:33.192Z,18.90
2018-08-19T02:13:00.839Z,18.90
2018-08-19T02:15:29.330Z,18.90
2018-08-19T02:18:02.835Z,19.00
2018-08-19T02:20:33.170Z,19.00
2018-08-19T02:23:01.734Z,19.00
2018-08-19T02:25:34.916Z,19.00
2018-08-19T02:28:02.990Z,19.10
2018-08-19T02:30:30.314Z,19.10
2018-08-19T02:32:57.640Z,19.20
2018-08-19T02:35:25.019Z,19.20
2018-08-19T02:37:52.322Z,19.30
2018-08-19T02:40:25.048Z,19.30
2018-08-19T02:42:52.377Z,19.30
2018-08-19T02:45:19.695Z,19.30
2018-08-19T02:47:47.056Z,19.40
2018-08-19T02:50:14.397Z,19.40
2018-08-19T02:52:41.764Z,19.40
2018-08-19T02:55:09.099Z,19.40
2018-08-19T02:57:38.943Z,19.40
2018-08-19T03:00:07.631Z,19.50
2018-08-19T03:02:37.075Z,19.50
2018-08-19T03:05:07.088Z,19.50
2018-08-19T03:07:34.491Z,19.60
2018-08-19T03:10:07.586Z,19.50
2018-08-19T03:12:34.922Z,19.60
2018-08-19T03:15:02.333Z,19.50
2018-08-19T03:17:30.634Z,19.50
2018-08-19T03:19:58.759Z,19.60
2018-08-19T03:22:26.839Z,19.60
2018-08-19T03:24:54.684Z,19.50
2018-08-19T03:28:16.821Z,19.50
2018-08-19T03:30:49.772Z,19.50
2018-08-19T03:33:17.091Z,19.40
2018-08-19T03:35:44.435Z,19.40
2018-08-19T03:38:12.748Z,19.30
2018-08-19T03:40:40.099Z,19.30
2018-08-19T03:43:07.929Z,19.30
2018-08-19T03:45:35.259Z,19.20
2018-08-19T03:48:02.657Z,19.20
2018-08-19T03:50:30.004Z,19.10
2018-08-19T03:52:57.403Z,19.10
2018-08-19T03:55:24.782Z,19.10
2018-08-19T03:57:53.522Z,19.10
2018-08-19T04:00:20.907Z,19.00
2018-08-19T04:02:48.213Z,19.00
2018-08-19T04:05:15.569Z,19.00
2018-08-19T04:07:43.533Z,18.90
2018-08-19T04:10:11.263Z,18.90
2018-08-19T04:12:38.574Z,18.90
2018-08-19T04:15:07.748Z,18.80
2018-08-19T04:17:35.219Z,18.80
2018-08-19T04:20:03.558Z,18.70
2018-08-19T04:22:30.871Z,18.70
2018-08-19T04:25:05.080Z,18.70
2018-08-19T04:27:32.682Z,18.60
2018-08-19T04:29:59.993Z,18.60
2018-08-19T04:32:31.013Z,18.60
2018-08-19T04:34:58.863Z,18.60
2018-08-19T04:37:26.362Z,18.50
2018-08-19T04:39:53.635Z,18.50
2018-08-19T04:42:21.014Z,18.50
2018-08-19T04:44:48.275Z,18.50
2018-08-19T04:47:28.424Z,18.50
2018-08-19T04:49:55.741Z,18.50
2018-08-19T04:52:24.064Z,18.40
2018-08-19T04:54:52.651Z,18.40
2018-08-19T04:57:20.255Z,18.40
2018-08-19T04:59:47.761Z,18.40
2018-08-19T05:02:15.235Z,18.40
2018-08-19T05:04:42.380Z,18.40
2018-08-19T05:07:09.703Z,18.40
2018-08-19T05:09:37.015Z,18.40
2018-08-19T05:12:04.428Z,18.40
2018-08-19T05:14:32.093Z,18.40
2018-08-19T05:16:59.465Z,18.40
2018-08-19T05:19:26.809Z,18.40
2018-08-19T05:21:58.684Z,18.40
2018-08-19T05:24:26.040Z,18.50
2018-08-19T05:26:58.824Z,18.50
2018-08-19T05:29:26.137Z,18.50
2018-08-19T05:31:56.884Z,18.50
2018-08-19T05:34:30.562Z,18.50
2018-08-19T05:36:58.067Z,18.60
2018-08-19T05:39:25.585Z,18.60
2018-08-19T05:42:14.633Z,18.60
2018-08-19T05:44:45.743Z,18.60
2018-08-19T05:47:15.983Z,18.70
2018-08-19T05:49:44.520Z,18.70
2018-08-19T05:52:17.211Z,18.70
2018-08-19T05:54:50.190Z,18.80
2018-08-19T05:57:17.845Z,19.00
2018-08-19T05:59:46.326Z,19.10
2018-08-19T06:02:13.777Z,19.30
2018-08-19T06:04:41.244Z,19.50
2018-08-19T06:07:08.562Z,19.70
2018-08-19T06:09:35.876Z,20.00
2018-08-19T06:12:04.008Z,20.20
2018-08-19T06:14:31.678Z,20.50
2018-08-19T06:17:00.281Z,20.70
2018-08-19T06:19:27.587Z,21.00
2018-08-19T06:21:54.930Z,21.20
2018-08-19T06:24:29.056Z,21.50
2018-08-19T06:26:56.356Z,21.70
2018-08-19T06:29:41.531Z,21.90
2018-08-19T06:32:09.268Z,22.10
2018-08-19T06:34:36.604Z,22.20
2018-08-19T06:37:04.193Z,22.30
2018-08-19T06:39:31.502Z,22.40
2018-08-19T06:41:58.792Z,22.50
2018-08-19T06:44:26.111Z,22.60
2018-08-19T06:46:53.482Z,22.70
2018-08-19T06:49:20.812Z,22.90
2018-08-19T06:51:48.633Z,23.00
2018-08-19T06:54:15.940Z,23.10
2018-08-19T06:56:43.346Z,23.20
2018-08-19T06:59:10.730Z,23.40
2018-08-19T07:01:38.087Z,23.50
2018-08-19T07:04:06.419Z,23.60
2018-08-19T07:06:33.753Z,23.60
2018-08-19T07:09:01.271Z,23.70
2018-08-19T07:11:28.586Z,23.70
2018-08-19T07:13:55.908Z,23.80
2018-08-19T07:16:23.335Z,23.80
2018-08-19T07:18:50.743Z,23.70
2018-08-19T07:21:18.060Z,23.80
2018-08-19T07:23:45.455Z,23.70
2018-08-19T07:26:12.799Z,23.70
2018-08-19T07:28:40.138Z,23.70
2018-08-19T07:31:07.468Z,23.70
2018-08-19T07:33:34.811Z,23.60
2018-08-19T07:36:02.130Z,23.60
2018-08-19T07:38:29.467Z,23.50
2018-08-19T07:40:57.849Z,23.60
2018-08-19T07:43:25.232Z,23.60
2018-08-19T07:45:52.539Z,23.60
2018-08-19T07:48:19.901Z,23.60
2018-08-19T07:50:47.204Z,23.70
2018-08-19T07:53:14.555Z,23.70
2018-08-19T07:55:41.915Z,23.80
2018-08-19T07:58:09.317Z,23.80
2018-08-19T08:00:39.245Z,23.80
2018-08-19T08:03:06.787Z,23.90
2018-08-19T08:05:49.875Z,23.90
2018-08-19T08:08:17.307Z,24.00
2018-08-19T08:10:44.911Z,24.00
2018-08-19T08:13:12.936Z,24.10
2018-08-19T08:15:46.027Z,24.10
2018-08-19T08:18:13.890Z,24.20
2018-08-19T08:20:42.145Z,24.20
2018-08-19T08:23:21.097Z,24.20
2018-08-19T08:25:48.669Z,24.30
2018-08-19T08:28:16.711Z,24.30
2018-08-19T08:30:44.176Z,24.30
2018-08-19T08:33:11.502Z,24.40
2018-08-19T08:35:44.538Z,24.50
2018-08-19T08:38:12.415Z,24.60
2018-08-19T08:40:40.116Z,24.60
2018-08-19T08:43:07.419Z,24.70
2018-08-19T08:45:41.947Z,24.80
2018-08-19T08:48:09.741Z,24.80
2018-08-19T08:50:37.248Z,24.90
2018-08-19T08:53:04.854Z,24.90
2018-08-19T08:55:32.247Z,25.00
2018-08-19T08:57:59.613Z,25.00
2018-08-19T09:00:27.227Z,25.10
2018-08-19T09:02:54.582Z,25.20
2018-08-19T09:05:21.983Z,25.20
2018-08-19T09:07:49.299Z,25.30
2018-08-19T09:10:16.655Z,25.30
2018-08-19T09:12:54.423Z,25.40
2018-08-19T09:15:21.812Z,25.40
2018-08-19T09:17:49.172Z,25.50
2018-08-19T09:20:16.572Z,25.50
2018-08-19T09:22:44.743Z,25.50
2018-08-19T09:25:12.188Z,25.60
2018-08-19T09:27:40.261Z,25.70
2018-08-19T09:30:09.055Z,25.80
2018-08-19T09:32:52.074Z,25.80
2018-08-19T09:35:19.378Z,25.90
2018-08-19T09:37:46.675Z,26.10
2018-08-19T09:40:13.988Z,26.10
2018-08-19T09:42:41.394Z,26.20
2018-08-19T09:45:08.716Z,26.30
2018-08-19T09:47:36.037Z,26.30
2018-08-19T09:50:03.382Z,26.40
2018-08-19T09:52:30.731Z,26.50
2018-08-19T09:55:02.611Z,26.50
2018-08-19T09:57:29.950Z,26.50
2018-08-19T09:59:57.275Z,26.60
2018-08-19T10:02:24.663Z,26.60
2018-08-19T10:04:51.966Z,26.60
2018-08-19T10:07:19.503Z,26.60
2018-08-19T10:09:47.114Z,26.70
2018-08-19T10:12:14.454Z,26.70
2018-08-19T10:14:41.767Z,26.70
2018-08-19T10:17:09.120Z,26.70
2018-08-19T10:19:36.472Z,26.80
2018-08-19T10:22:03.848Z,26.80
2018-08-19T10:24:32.286Z,26.90
2018-08-19T10:27:00.082Z,27.00
2018-08-19T10:29:27.604Z,27.10
2018-08-19T10:34:27.816Z,27.30
2018-08-19T10:36:55.795Z,27.30
2018-08-19T10:39:23.155Z,27.40
2018-08-19T10:41:50.496Z,27.40
2018-08-19T10:44:18.067Z,27.50
2018-08-19T10:46:45.464Z,27.50
2018-08-19T10:49:12.837Z,27.50
2018-08-19T10:51:44.275Z,27.60
2018-08-19T10:54:12.282Z,27.60
2018-08-19T10:56:39.621Z,27.60
2018-08-19T10:59:06.951Z,27.60
2018-08-19T11:01:34.502Z,27.70
2018-08-19T11:04:01.856Z,27.70
2018-08-19T11:06:29.314Z,27.70
2018-08-19T11:08:58.934Z,27.70
2018-08-19T11:11:31.252Z,27.80
2018-08-19T11:13:58.919Z,27.80
2018-08-19T11:16:26.288Z,27.70
2018-08-19T11:18:54.006Z,27.70
2018-08-19T11:21:27.955Z,27.70
2018-08-19T11:23:56.126Z,27.70
2018-08-19T11:26:23.583Z,27.70
2018-08-19T11:28:52.156Z,27.60
2018-08-19T11:31:25.956Z,27.60
2018-08-19T11:33:54.558Z,27.60
2018-08-19T11:36:27.839Z,27.70
2018-08-19T11:38:55.146Z,27.80
2018-08-19T11:41:22.496Z,27.90
2018-08-19T11:43:50.215Z,27.90
2018-08-19T11:46:17.614Z,28.00
2018-08-19T11:48:45.665Z,28.00
2018-08-19T11:51:12.879Z,28.10
2018-08-19T11:53:40.214Z,28.10
2018-08-19T11:56:07.684Z,28.20
2018-08-19T11:58:41.668Z,28.20
2018-08-19T12:01:20.242Z,28.20
2018-08-19T12:04:01.928Z,28.30
2018-08-19T12:06:30.402Z,28.20
2018-08-19T12:08:58.987Z,28.10
2018-08-19T12:11:30.027Z,28.10
2018-08-19T12:13:57.417Z,28.10
2018-08-19T12:16:25.852Z,28.10
2018-08-19T12:18:53.203Z,28.20
2018-08-19T12:21:21.599Z,28.20
2018-08-19T12:23:49.775Z,28.20
2018-08-19T12:26:17.249Z,28.30
2018-08-19T12:28:44.647Z,28.30
2018-08-19T12:31:13.994Z,28.30
2018-08-19T12:33:41.391Z,28.30
2018-08-19T12:36:08.776Z,28.30
2018-08-19T12:38:36.124Z,28.30
2018-08-19T12:41:04.011Z,28.30
2018-08-19T12:43:31.735Z,28.30
2018-08-19T12:45:59.327Z,28.40
2018-08-19T12:48:26.923Z,28.40
2018-08-19T12:50:58.881Z,28.40
2018-08-19T12:53:26.235Z,28.40
2018-08-19T12:55:53.600Z,28.50
2018-08-19T12:58:21.047Z,28.50
2018-08-19T13:00:48.471Z,28.50
2018-08-19T13:03:15.822Z,28.60
2018-08-19T13:05:57.315Z,28.60
2018-08-19T13:08:25.283Z,28.70
2018-08-19T13:10:52.639Z,28.60
2018-08-19T13:13:20.029Z,28.70
2018-08-19T13:15:47.380Z,28.70
2018-08-19T13:18:19.386Z,28.70
2018-08-19T13:20:46.768Z,28.80
2018-08-19T13:23:14.126Z,28.80
2018-08-19T13:25:41.480Z,28.80
2018-08-19T13:28:08.820Z,28.90
2018-08-19T13:30:36.184Z,29.00
2018-08-19T13:33:03.518Z,29.00
2018-08-19T13:35:30.862Z,29.00
2018-08-19T13:37:58.207Z,29.00
2018-08-19T13:40:26.021Z,29.10
2018-08-19T13:42:53.384Z,29.10
2018-08-19T13:45:21.692Z,29.20
2018-08-19T13:47:52.425Z,29.10
2018-08-19T13:50:19.767Z,29.20
2018-08-19T13:52:47.120Z,29.30
2018-08-19T13:55:16.452Z,29.30
2018-08-19T13:57:43.793Z,29.30
2018-08-19T14:00:16.632Z,29.40
2018-08-19T14:02:45.117Z,29.40
2018-08-19T14:05:12.495Z,29.40
2018-08-19T14:07:41.226Z,29.40
2018-08-19T14:10:10.021Z,29.50
2018-08-19T14:12:37.342Z,29.50
2018-08-19T14:15:04.674Z,29.50
2018-08-19T14:17:32.046Z,29.50
2018-08-19T14:19:59.404Z,29.50
2018-08-19T14:22:26.897Z,29.50
2018-08-19T14:24:54.456Z,29.60
2018-08-19T14:27:21.776Z,29.60
2018-08-19T14:29:49.119Z,29.70
2018-08-19T14:32:28.831Z,29.70
2018-08-19T14:34:57.108Z,29.70
2018-08-19T14:37:25.172Z,29.70
2018-08-19T14:39:52.521Z,29.80
2018-08-19T14:42:19.880Z,29.70
2018-08-19T14:44:47.200Z,29.80
2018-08-19T14:47:14.518Z,29.70
2018-08-19T14:49:41.860Z,29.70
2018-08-19T14:52:09.220Z,29.70
2018-08-19T14:54:36.519Z,29.70
2018-08-19T14:57:03.841Z,29.70
2018-08-19T14:59:31.154Z,29.70
2018-08-19T15:01:58.504Z,29.80
2018-08-19T15:04:25.881Z,29.70
2018-08-19T15:06:53.194Z,29.70
2018-08-19T15:09:29.801Z,29.70
2018-08-19T15:12:09.139Z,29.70
2018-08-19T15:14:36.514Z,29.60
2018-08-19T15:17:06.394Z,29.70
2018-08-19T15:19:33.727Z,29.70
2018-08-19T15:22:01.236Z,29.70
2018-08-19T15:24:28.580Z,29.70
2018-08-19T15:26:55.930Z,29.70
2018-08-19T15:29:30.194Z,29.70
2018-08-19T15:31:59.339Z,29.60
2018-08-19T15:34:26.556Z,29.70
2018-08-19T15:36:53.928Z,29.70
2018-08-19T15:39:21.292Z,29.70
2018-08-19T15:41:48.633Z,29.70
2018-08-19T15:44:16.103Z,29.70
2018-08-19T15:46:44.205Z,29.70
2018-08-19T15:49:11.831Z,29.70
2018-08-19T15:51:39.385Z,29.60
2018-08-19T15:54:07.717Z,29.70
2018-08-19T15:56:35.370Z,29.70
2018-08-19T15:59:04.930Z,29.70
2018-08-19T16:01:32.796Z,29.70
2018-08-19T16:04:16.536Z,29.60
2018-08-19T16:06:45.434Z,29.70
2018-08-19T16:09:15.360Z,29.60
2018-08-19T16:11:43.107Z,29.60
2018-08-19T16:14:17.128Z,29.60
2018-08-19T16:16:44.709Z,29.60
2018-08-19T16:19:12.320Z,29.60
2018-08-19T16:21:39.643Z,29.60
2018-08-19T16:24:07.582Z,29.60
2018-08-19T16:26:34.932Z,29.60
2018-08-19T16:29:02.291Z,29.60
2018-08-19T16:31:29.621Z,29.50
2018-08-19T16:33:57.077Z,29.50
2018-08-19T16:36:24.519Z,29.50
2018-08-19T16:38:52.101Z,29.50
2018-08-19T16:41:19.435Z,29.40
2018-08-19T16:43:46.801Z,29.40
2018-08-19T16:46:14.116Z,29.40
2018-08-19T16:48:41.431Z,29.40
2018-08-19T16:51:08.759Z,29.30
2018-08-19T16:53:36.063Z,29.30
2018-08-19T16:56:03.400Z,29.30
2018-08-19T16:58:30.735Z,29.30
2018-08-19T17:00:58.054Z,29.20
2018-08-19T17:03:33.768Z,29.20
2018-08-19T17:06:01.281Z,29.20
2018-08-19T17:08:28.619Z,29.10
2018-08-19T17:10:56.198Z,29.10
2018-08-19T17:13:23.516Z,29.10
2018-08-19T17:15:50.918Z,29.10
2018-08-19T17:18:18.231Z,29.10
2018-08-19T17:20:45.599Z,29.10
2018-08-19T17:23:15.961Z,29.10
2018-08-19T17:25:43.826Z,29.10
2018-08-19T17:28:15.743Z,29.00
2018-08-19T17:30:43.089Z,28.90
2018-08-19T17:33:10.525Z,28.80
2018-08-19T17:35:39.307Z,28.70
2018-08-19T17:38:07.131Z,28.70
2018-08-19T17:40:34.459Z,28.60
2018-08-19T17:43:02.661Z,28.60
2018-08-19T17:45:31.012Z,28.50
2018-08-19T17:47:58.448Z,28.40
2018-08-19T17:50:26.876Z,28.30
2018-08-19T17:52:55.770Z,28.20
2018-08-19T17:55:23.756Z,28.10
2018-08-19T17:57:51.098Z,28.00
2018-08-19T18:00:18.531Z,27.90
2018-08-19T18:02:46.028Z,27.80
2018-08-19T18:05:13.396Z,27.60
2018-08-19T18:07:41.019Z,27.50
2018-08-19T18:10:11.393Z,27.40
2018-08-19T18:12:38.688Z,27.30
2018-08-19T18:15:07.652Z,27.20
2018-08-19T18:17:35.044Z,27.10
2018-08-19T18:20:18.611Z,27.00
2018-08-19T18:22:45.953Z,27.00
2018-08-19T18:25:13.647Z,26.90
2018-08-19T18:27:41.556Z,26.90
2018-08-19T18:30:08.890Z,26.80
2018-08-19T18:32:36.260Z,26.70
2018-08-19T18:35:03.995Z,26.70
2018-08-19T18:37:32.478Z,26.70
2018-08-19T18:39:59.882Z,26.60
2018-08-19T18:42:34.741Z,26.50
2018-08-19T18:47:59.221Z,26.40
2018-08-19T18:50:26.560Z,26.30
2018-08-19T18:53:00.742Z,26.20
2018-08-19T18:55:28.103Z,26.10
2018-08-19T18:57:56.195Z,26.10
2018-08-19T19:00:25.092Z,26.00
2018-08-19T19:02:57.669Z,25.90
2018-08-19T19:05:32.810Z,25.80
2018-08-19T19:08:05.969Z,25.80
2018-08-19T19:10:33.263Z,25.70
2018-08-19T19:13:01.023Z,25.60
2018-08-19T19:15:29.415Z,25.50
2018-08-19T19:17:56.781Z,25.50
2018-08-19T19:20:24.127Z,25.40
2018-08-19T19:22:57.117Z,25.40
2018-08-19T19:25:31.901Z,25.30
2018-08-19T19:27:59.256Z,25.30
2018-08-19T19:30:26.615Z,25.30
2018-08-19T19:32:58.543Z,25.20
2018-08-19T19:35:26.962Z,25.20
2018-08-19T19:37:54.287Z,25.20
2018-08-19T19:40:21.620Z,25.20
2018-08-19T19:42:49.196Z,25.20
2018-08-19T19:45:17.127Z,25.20
2018-08-19T19:47:44.467Z,25.20
2018-08-19T19:50:12.135Z,25.20
2018-08-19T19:52:44.319Z,25.20
2018-08-19T19:55:11.690Z,25.10
2018-08-19T19:57:39.065Z,25.10
2018-08-19T20:00:06.455Z,25.00
2018-08-19T20:02:33.827Z,25.10
2018-08-19T20:05:07.831Z,25.00
2018-08-19T20:07:35.386Z,25.00
2018-08-19T20:10:02.917Z,25.10
2018-08-19T20:12:30.296Z,25.00
2018-08-19T20:14:59.693Z,25.00
2018-08-19T20:17:27.195Z,24.90
2018-08-19T20:19:54.568Z,24.90
2018-08-19T20:22:21.926Z,24.90
2018-08-19T20:24:49.528Z,24.90
2018-08-19T20:27:17.079Z,24.80
2018-08-19T20:29:44.485Z,24.80
2018-08-19T20:32:11.874Z,24.80
2018-08-19T20:34:39.252Z,24.80
2018-08-19T20:37:06.593Z,24.80
2018-08-19T20:39:33.967Z,24.70
2018-08-19T20:42:01.359Z,24.70
2018-08-19T20:44:28.761Z,24.90
2018-08-19T20:46:57.232Z,24.70
2018-08-19T20:49:25.665Z,24.60
2018-08-19T20:51:53.683Z,24.60
2018-08-19T20:54:21.063Z,24.60
2018-08-19T20:56:48.391Z,24.50
2018-08-19T20:59:20.563Z,24.50
2018-08-19T21:01:48.641Z,24.50
2018-08-19T21:04:16.143Z,24.40
2018-08-19T21:06:43.727Z,24.40
2018-08-19T21:09:11.115Z,24.40
2018-08-19T21:11:45.252Z,24.40
2018-08-19T21:14:12.590Z,24.40
2018-08-19T21:16:39.934Z,24.30
2018-08-19T21:19:07.258Z,24.40
2018-08-19T21:21:34.611Z,24.30
2018-08-19T21:24:02.003Z,24.30
2018-08-19T21:26:29.418Z,24.30
2018-08-19T21:29:02.138Z,24.30
2018-08-19T21:31:29.800Z,24.30
2018-08-19T21:33:57.243Z,24.20
2018-08-19T21:36:24.606Z,24.20
2018-08-19T21:38:52.011Z,24.20
2018-08-19T21:41:19.338Z,24.20
2018-08-19T21:43:46.715Z,24.20
2018-08-19T21:46:14.030Z,24.20
2018-08-19T21:48:41.399Z,24.20
2018-08-19T21:51:08.749Z,24.20
2018-08-19T21:53:36.255Z,24.20
2018-08-19T21:56:03.639Z,24.20
2018-08-19T21:58:31.043Z,24.20
2018-08-19T22:01:00.105Z,24.20
2018-08-19T22:03:33.179Z,24.20
2018-08-19T22:06:04.536Z,24.20
2018-08-19T22:08:31.919Z,24.20
2018-08-19T22:10:59.319Z,24.10
2018-08-19T22:13:26.730Z,24.20
2018-08-19T22:15:54.065Z,24.10
2018-08-19T22:18:22.539Z,24.10
2018-08-19T22:21:02.492Z,24.10
2018-08-19T22:23:34.462Z,24.10
2018-08-19T22:26:01.863Z,24.00
2018-08-19T22:28:29.263Z,24.00
2018-08-19T22:30:56.680Z,24.00
2018-08-19T22:33:23.983Z,23.90
2018-08-19T22:35:51.284Z,23.90
2018-08-19T22:38:21.219Z,23.90
2018-08-19T22:40:48.603Z,23.90
2018-08-19T22:43:16.783Z,23.80
2018-08-19T22:45:44.139Z,23.80
2018-08-19T22:48:11.533Z,23.80
2018-08-19T22:50:38.900Z,23.70
2018-08-19T22:53:06.256Z,23.80
2018-08-19T22:55:40.212Z,23.70
2018-08-19T22:58:13.889Z,23.70
2018-08-19T23:00:42.687Z,23.70
2018-08-19T23:03:10.100Z,23.60
2018-08-19T23:05:37.476Z,23.60
2018-08-19T23:08:05.019Z,23.50
2018-08-19T23:10:32.344Z,23.50
2018-08-19T23:13:08.425Z,23.50
2018-08-19T23:15:37.551Z,23.40
2018-08-19T23:18:05.027Z,23.40
2018-08-19T23:20:32.541Z,23.40
2018-08-19T23:22:59.900Z,23.40
2018-08-19T23:25:27.196Z,23.40
2018-08-19T23:27:54.519Z,23.40
2018-08-19T23:30:21.818Z,23.30
2018-08-19T23:32:49.112Z,23.30
2018-08-19T23:35:16.456Z,23.30
2018-08-19T23:37:43.763Z,23.30
2018-08-19T23:40:11.120Z,23.30
2018-08-19T23:42:38.515Z,23.30
2018-08-19T23:45:06.524Z,23.30
2018-08-19T23:47:33.838Z,23.40
2018-08-19T23:50:01.147Z,23.40
2018-08-19T23:52:28.478Z,23.30
2018-08-19T23:54:55.784Z,23.40
2018-08-19T23:57:23.234Z,23.40
2018-08-19T23:59:50.543Z,23.40
